Time;durP1;ratioP1;P1;durP2;ratioP2;P2;SDS_P1;SDS_P2;PMS_P1;PMS_P2;Temp;Humidity;BMP_temperature;BMP_pressure;BME280_temperature;BME280_humidity;BME280_pressure;Samples;Min_cycle;Max_cycle;Signal;HPM_P1;HPM_P2
2023/04/10 00:00:08;;;;;;;46.92;29.02;;;7.50;99.90;;;;;;5117954;27;20062;-69
2023/04/10 00:02:35;;;;;;;48.70;30.70;;;7.40;99.90;;;;;;5131086;27;20476;-70
2023/04/10 00:05:01;;;;;;;43.60;28.27;;;7.40;99.90;;;;;;5131002;27;20039;-69
2023/04/10 00:07:27;;;;;;;46.45;30.15;;;7.40;99.90;;;;;;5133449;27;20400;-69
2023/04/10 00:09:53;;;;;;;44.38;29.08;;;7.40;99.90;;;;;;5128906;27;20062;-69
2023/04/10 00:12:19;;;;;;;48.50;29.55;;;7.40;99.90;;;;;;5098151;27;20055;-69
2023/04/10 00:14:45;;;;;;;45.05;29.42;;;7.30;99.90;;;;;;5132085;27;20054;-70
2023/04/10 00:17:11;;;;;;;48.95;29.83;;;7.30;99.90;;;;;;5091710;27;20130;-70
2023/04/10 00:19:36;;;;;;;45.63;28.88;;;7.30;99.90;;;;;;5108431;27;20426;-70
2023/04/10 00:22:02;;;;;;;45.83;29.17;;;7.30;99.90;;;;;;5136514;27;20047;-70
2023/04/10 00:24:28;;;;;;;49.80;29.38;;;7.30;99.90;;;;;;5130556;27;20036;-71
2023/04/10 00:26:55;;;;;;;48.72;29.75;;;7.20;99.90;;;;;;5128768;27;20453;-70
2023/04/10 00:29:21;;;;;;;46.15;30.10;;;7.20;99.90;;;;;;5133064;27;20092;-70
2023/04/10 00:31:46;;;;;;;45.47;29.23;;;7.20;99.90;;;;;;5129835;27;20035;-70
2023/04/10 00:34:12;;;;;;;48.05;29.30;;;7.10;99.90;;;;;;5112683;27;20045;-70
2023/04/10 00:36:38;;;;;;;53.33;31.98;;;7.10;99.90;;;;;;5132121;27;20531;-70
2023/04/10 00:39:04;;;;;;;46.90;31.38;;;7.10;99.90;;;;;;5112442;27;20101;-70
2023/04/10 00:41:30;;;;;;;48.35;31.25;;;7.10;99.90;;;;;;5119844;27;20092;-70
2023/04/10 00:43:56;;;;;;;49.90;32.60;;;7.10;99.90;;;;;;5130199;27;20047;-70
2023/04/10 00:46:23;;;;;;;53.20;34.40;;;7.10;99.90;;;;;;5130620;27;20450;-70
2023/04/10 00:48:51;;;;;;;52.78;35.00;;;7.00;99.90;;;;;;5124934;27;20031;-69
2023/04/10 00:51:19;;;;;;;53.65;34.42;;;7.00;99.90;;;;;;5095574;28;20035;-70
2023/04/10 00:53:53;;;;;;;53.97;33.58;;;7.00;99.90;;;;;;5131937;27;20043;-69
2023/04/10 00:56:20;;;;;;;54.40;34.47;;;7.00;99.90;;;;;;5122196;27;20062;-70
2023/04/10 00:58:46;;;;;;;51.72;33.05;;;6.90;99.90;;;;;;5124514;27;20074;-69
2023/04/10 01:01:11;;;;;;;56.05;32.50;;;6.90;99.90;;;;;;5127304;27;20079;-70
2023/04/10 01:03:38;;;;;;;50.67;32.42;;;6.90;99.90;;;;;;5124077;27;20075;-70
2023/04/10 01:06:25;;;;;;;49.65;32.25;;;6.90;99.90;;;;;;5111855;27;20052;-70
2023/04/10 01:09:08;;;;;;;53.45;33.20;;;6.80;99.90;;;;;;5112422;28;20047;-69
2023/04/10 01:11:57;;;;;;;49.97;32.45;;;6.70;99.90;;;;;;5121934;27;20039;-69
2023/04/10 01:14:37;;;;;;;57.17;34.97;;;6.70;99.90;;;;;;5115719;27;20049;-69
2023/04/10 01:17:12;;;;;;;53.17;32.20;;;6.70;99.90;;;;;;5131738;27;20047;-70
2023/04/10 01:19:59;;;;;;;55.20;34.50;;;6.70;99.90;;;;;;5130603;27;20046;-71
2023/04/10 01:22:49;;;;;;;53.58;32.85;;;6.70;99.90;;;;;;5122812;27;20035;-70
2023/04/10 01:25:33;;;;;;;56.80;33.50;;;6.60;99.90;;;;;;5125654;27;20503;-71
2023/04/10 01:28:17;;;;;;;58.88;35.83;;;6.60;99.90;;;;;;5109604;27;20044;-70
2023/04/10 01:30:46;;;;;;;55.58;36.42;;;6.60;99.90;;;;;;5119605;28;20492;-70
2023/04/10 01:33:16;;;;;;;63.10;37.53;;;6.60;99.90;;;;;;5120451;27;20507;-70
2023/04/10 01:35:46;;;;;;;61.80;36.92;;;7.20;99.90;;;;;;5112024;28;20051;-70
2023/04/10 01:38:16;;;;;;;57.78;37.05;;;6.50;99.90;;;;;;5130613;27;20047;-70
2023/04/10 01:40:48;;;;;;;58.80;36.55;;;6.60;99.90;;;;;;5113882;28;20095;-70
2023/04/10 01:43:15;;;;;;;61.00;37.78;;;6.50;99.90;;;;;;5123370;28;20062;-70
2023/04/10 01:45:43;;;;;;;61.25;37.25;;;6.50;99.90;;;;;;5114431;28;20048;-70
2023/04/10 01:48:10;;;;;;;56.10;36.33;;;6.50;99.90;;;;;;5130590;28;20371;-71
2023/04/10 01:50:36;;;;;;;62.35;37.15;;;6.40;99.90;;;;;;5115231;28;20049;-70
2023/04/10 01:53:06;;;;;;;60.10;37.35;;;6.40;99.90;;;;;;5125783;28;20039;-70
2023/04/10 01:55:32;;;;;;;63.75;37.33;;;6.40;99.90;;;;;;5122194;27;20039;-69
2023/04/10 01:58:00;;;;;;;65.50;40.00;;;6.40;99.90;;;;;;5131718;28;20043;-70
2023/04/10 02:00:26;;;;;;;64.07;38.22;;;6.40;99.90;;;;;;5116888;27;20553;-69
2023/04/10 02:02:52;;;;;;;61.17;39.28;;;6.30;99.90;;;;;;5134047;27;20039;-70
2023/04/10 02:05:18;;;;;;;59.63;38.70;;;6.30;99.90;;;;;;5135182;27;20058;-69
2023/04/10 02:08:01;;;;;;;61.92;39.45;;;6.30;99.90;;;;;;5123669;27;20046;-69
2023/04/10 02:10:56;;;;;;;63.92;37.97;;;6.30;99.90;;;;;;5120019;27;20053;-69
2023/04/10 02:13:25;;;;;;;64.55;38.55;;;6.30;99.90;;;;;;5123072;27;20704;-70
2023/04/10 02:15:55;;;;;;;60.35;38.58;;;6.30;99.90;;;;;;5119516;27;20450;-69
2023/04/10 02:18:22;;;;;;;58.58;39.42;;;6.30;99.90;;;;;;5130045;27;20434;-72
2023/04/10 02:20:48;;;;;;;61.05;37.47;;;6.30;99.90;;;;;;5133974;27;20043;-71
2023/04/10 02:23:19;;;;;;;65.82;38.92;;;6.30;99.90;;;;;;5128710;27;20039;-70
2023/04/10 02:25:45;;;;;;;63.88;37.58;;;6.30;99.90;;;;;;5118926;27;20046;-69
2023/04/10 02:28:11;;;;;;;63.47;39.33;;;6.30;99.90;;;;;;5121777;27;20043;-70
2023/04/10 02:30:38;;;;;;;65.78;39.05;;;6.30;99.90;;;;;;5130355;27;20039;-70
2023/04/10 02:33:03;;;;;;;64.03;39.97;;;6.30;99.90;;;;;;5137817;27;20043;-69
2023/04/10 02:35:29;;;;;;;64.63;40.17;;;6.30;99.90;;;;;;5116046;27;20130;-69
2023/04/10 02:37:55;;;;;;;60.20;37.47;;;6.30;99.90;;;;;;5115179;27;20047;-69
2023/04/10 02:40:21;;;;;;;62.50;39.85;;;6.30;99.90;;;;;;5132885;27;20097;-70
2023/04/10 02:42:47;;;;;;;64.95;39.58;;;6.20;99.90;;;;;;5110423;27;20468;-70
2023/04/10 02:45:12;;;;;;;65.30;38.28;;;6.20;99.90;;;;;;5115865;28;20043;-70
2023/04/10 02:47:38;;;;;;;60.17;38.80;;;6.20;99.90;;;;;;5121345;27;20035;-69
2023/04/10 02:50:04;;;;;;;60.95;38.70;;;6.20;99.90;;;;;;5129957;27;20091;-69
2023/04/10 02:52:30;;;;;;;63.55;39.55;;;6.20;99.90;;;;;;5131516;27;20118;-70
2023/04/10 02:54:55;;;;;;;65.00;40.13;;;6.20;99.90;;;;;;5099675;27;20117;-69
2023/04/10 02:57:21;;;;;;;65.43;39.70;;;6.20;99.90;;;;;;5135117;27;20171;-69
2023/04/10 02:59:50;;;;;;;63.40;39.40;;;6.20;99.90;;;;;;5134618;27;20043;-69
2023/04/10 03:02:16;;;;;;;64.07;39.03;;;6.20;99.90;;;;;;5121777;27;20489;-69
2023/04/10 03:04:41;;;;;;;64.75;39.15;;;6.20;99.90;;;;;;5117489;27;20048;-69
2023/04/10 03:07:07;;;;;;;61.85;38.22;;;6.20;99.90;;;;;;5132540;27;20491;-69
2023/04/10 03:09:33;;;;;;;60.00;38.00;;;6.20;99.90;;;;;;5126729;27;20088;-69
2023/04/10 03:11:58;;;;;;;63.72;37.10;;;6.20;99.90;;;;;;5128983;27;20388;-69
2023/04/10 03:14:25;;;;;;;60.13;39.15;;;6.10;99.90;;;;;;5114703;27;20044;-69
2023/04/10 03:16:50;;;;;;;61.67;38.80;;;6.20;99.90;;;;;;5124550;27;20116;-70
2023/04/10 03:19:16;;;;;;;63.70;39.83;;;6.10;99.90;;;;;;5127809;27;20528;-70
2023/04/10 03:21:41;;;;;;;61.05;39.15;;;6.10;99.90;;;;;;5128915;27;20070;-70
2023/04/10 03:24:07;;;;;;;61.50;39.53;;;6.00;99.90;;;;;;5124640;27;20044;-70
2023/04/10 03:26:33;;;;;;;64.13;39.47;;;6.00;99.90;;;;;;5134034;27;20100;-70
2023/04/10 03:28:58;;;;;;;61.22;38.80;;;6.00;99.90;;;;;;5120666;27;20109;-70
2023/04/10 03:31:24;;;;;;;61.70;37.63;;;6.00;99.90;;;;;;5133312;27;20381;-70
2023/04/10 03:33:50;;;;;;;62.42;38.50;;;6.00;99.90;;;;;;5135492;27;20109;-70
2023/04/10 03:36:15;;;;;;;59.08;37.05;;;6.00;99.90;;;;;;5127760;27;20083;-70
2023/04/10 03:38:41;;;;;;;64.85;39.10;;;6.00;99.90;;;;;;5116606;27;20119;-69
2023/04/10 03:41:07;;;;;;;61.05;36.38;;;6.00;99.90;;;;;;5119625;27;20035;-70
2023/04/10 03:43:32;;;;;;;63.88;37.65;;;5.90;99.90;;;;;;5131947;27;20122;-69
2023/04/10 03:45:58;;;;;;;65.28;38.67;;;5.90;99.90;;;;;;5132244;27;20126;-69
2023/04/10 03:48:26;;;;;;;58.85;35.63;;;5.90;99.90;;;;;;5114064;27;20045;-69
2023/04/10 03:50:53;;;;;;;64.75;39.95;;;5.80;99.90;;;;;;5131595;27;20399;-69
2023/04/10 03:53:19;;;;;;;58.10;36.65;;;5.80;99.90;;;;;;5119172;27;20039;-70
2023/04/10 03:55:45;;;;;;;57.90;37.17;;;5.80;99.90;;;;;;5128318;27;20047;-69
2023/04/10 03:58:11;;;;;;;59.90;37.72;;;5.80;99.90;;;;;;5137591;27;20047;-70
2023/04/10 04:00:36;;;;;;;64.18;38.28;;;5.80;99.90;;;;;;5155576;27;20038;-69
2023/04/10 04:03:03;;;;;;;66.63;40.05;;;5.80;99.90;;;;;;5136690;27;20053;-69
2023/04/10 04:05:30;;;;;;;62.90;37.97;;;5.70;99.90;;;;;;5130271;27;20115;-69
2023/04/10 04:07:56;;;;;;;61.75;39.13;;;5.70;99.90;;;;;;5115051;27;20396;-70
2023/04/10 04:10:22;;;;;;;68.20;39.90;;;5.70;99.90;;;;;;5124345;27;20049;-70
2023/04/10 04:12:48;;;;;;;72.03;42.92;;;5.70;99.90;;;;;;5134596;27;20051;-70
2023/04/10 04:15:14;;;;;;;66.97;40.95;;;5.70;99.90;;;;;;5134585;27;20057;-69
2023/04/10 04:17:41;;;;;;;70.65;42.70;;;5.60;99.90;;;;;;5117936;27;20039;-69
2023/04/10 04:20:07;;;;;;;67.60;42.95;;;5.60;99.90;;;;;;5109593;27;20046;-69
2023/04/10 04:22:32;;;;;;;65.00;42.03;;;5.60;99.90;;;;;;5137938;27;20046;-69
2023/04/10 04:24:58;;;;;;;69.90;42.50;;;5.60;99.90;;;;;;5122721;27;20511;-69
2023/04/10 04:27:24;;;;;;;70.80;42.90;;;5.60;99.90;;;;;;5127692;27;20552;-69
2023/04/10 04:29:49;;;;;;;74.78;44.65;;;5.60;99.90;;;;;;5101117;27;20036;-69
2023/04/10 04:32:15;;;;;;;72.72;44.63;;;5.60;99.90;;;;;;5116100;27;20050;-69
2023/04/10 04:34:41;;;;;;;71.25;44.78;;;5.60;99.90;;;;;;5119378;27;20039;-69
2023/04/10 04:37:06;;;;;;;69.03;42.80;;;5.60;99.90;;;;;;5122739;27;20078;-70
2023/04/10 04:39:32;;;;;;;69.80;43.38;;;5.60;99.90;;;;;;5125453;27;20070;-69
2023/04/10 04:41:58;;;;;;;73.07;44.88;;;5.60;99.90;;;;;;5094816;28;20101;-70
2023/04/10 04:44:23;;;;;;;71.95;44.38;;;5.60;99.90;;;;;;5108859;28;20065;-69
2023/04/10 04:46:49;;;;;;;72.63;45.40;;;5.50;99.90;;;;;;5120302;27;20054;-69
2023/04/10 04:49:14;;;;;;;64.43;42.22;;;5.50;99.90;;;;;;5125623;27;20046;-69
2023/04/10 04:51:40;;;;;;;73.18;44.17;;;5.50;99.90;;;;;;5131398;27;20042;-69
2023/04/10 04:54:05;;;;;;;70.43;44.83;;;5.50;99.90;;;;;;5091559;27;20050;-69
2023/04/10 04:56:31;;;;;;;68.85;43.53;;;5.50;99.90;;;;;;5132817;27;20065;-69
2023/04/10 04:58:57;;;;;;;69.38;43.17;;;5.60;99.90;;;;;;5124511;27;20049;-69
2023/04/10 05:01:23;;;;;;;70.25;42.78;;;5.50;99.90;;;;;;5112625;27;20043;-69
2023/04/10 05:03:49;;;;;;;65.50;42.20;;;5.60;99.90;;;;;;5125595;27;20047;-70
2023/04/10 05:06:14;;;;;;;66.78;42.50;;;5.60;99.90;;;;;;5129286;27;20039;-69
2023/04/10 05:08:40;;;;;;;64.85;41.13;;;5.60;99.90;;;;;;5132372;27;20039;-69
2023/04/10 05:11:06;;;;;;;65.75;40.85;;;5.70;99.90;;;;;;5131810;27;20047;-69
2023/04/10 05:13:31;;;;;;;64.85;42.20;;;5.70;99.90;;;;;;5133227;27;20047;-70
2023/04/10 05:15:57;;;;;;;65.90;41.28;;;5.70;99.90;;;;;;5120802;27;20031;-70
2023/04/10 05:18:23;;;;;;;69.60;41.72;;;6.50;99.90;;;;;;5130682;27;20039;-69
2023/04/10 05:20:49;;;;;;;64.60;41.67;;;5.80;99.90;;;;;;5110529;28;20067;-69
2023/04/10 05:23:17;;;;;;;67.32;42.22;;;5.90;99.90;;;;;;5119228;27;20035;-69
2023/04/10 05:25:43;;;;;;;;;;;5.90;99.90;;;;;;5131380;27;20058;-69
2023/04/10 05:28:08;;;;;;;71.72;42.72;;;6.10;99.90;;;;;;5125546;27;19920;-70
2023/04/10 05:30:34;;;;;;;66.40;41.10;;;6.00;99.90;;;;;;5117792;27;20131;-69
2023/04/10 05:33:00;;;;;;;67.85;41.08;;;6.10;99.90;;;;;;5132523;27;20039;-70
2023/04/10 05:35:25;;;;;;;64.60;41.08;;;6.10;99.90;;;;;;5106450;28;20050;-69
2023/04/10 05:37:51;;;;;;;64.82;42.30;;;6.10;99.90;;;;;;5115429;28;20386;-69
2023/04/10 05:40:16;;;;;;;67.25;39.42;;;6.20;99.90;;;;;;5125761;27;20067;-69
2023/04/10 05:42:42;;;;;;;67.20;41.17;;;6.20;99.90;;;;;;5132528;28;20061;-69
2023/04/10 05:45:08;;;;;;;62.60;39.85;;;6.30;99.90;;;;;;5121877;27;20089;-69
2023/04/10 05:47:34;;;;;;;65.10;40.88;;;6.40;99.90;;;;;;5119335;28;20043;-71
2023/04/10 05:49:59;;;;;;;63.40;40.20;;;6.40;99.90;;;;;;5132958;28;20388;-69
2023/04/10 05:52:25;;;;;;;63.95;40.53;;;6.50;99.90;;;;;;5129686;28;20032;-69
2023/04/10 05:54:51;;;;;;;64.75;41.00;;;6.50;99.90;;;;;;5103290;28;20126;-69
2023/04/10 05:57:17;;;;;;;64.28;40.47;;;6.70;99.90;;;;;;5112388;28;20589;-70
2023/04/10 05:59:42;;;;;;;62.88;39.53;;;6.60;99.90;;;;;;5116972;28;20886;-69
2023/04/10 06:02:08;;;;;;;62.00;39.95;;;6.70;99.90;;;;;;5128067;27;20027;-69
2023/04/10 06:04:34;;;;;;;63.30;40.58;;;6.80;99.90;;;;;;5138940;27;20106;-69
2023/04/10 06:07:00;;;;;;;63.50;40.10;;;6.80;99.90;;;;;;5122707;28;20488;-69
2023/04/10 06:09:25;;;;;;;63.72;40.83;;;7.00;99.90;;;;;;5103138;28;20514;-70
2023/04/10 06:11:52;;;;;;;63.83;39.97;;;7.10;99.90;;;;;;5113827;28;20074;-70
2023/04/10 06:14:19;;;;;;;62.35;39.97;;;7.20;99.90;;;;;;5113994;28;20423;-70
2023/04/10 06:16:44;;;;;;;60.95;39.17;;;7.20;99.90;;;;;;5125538;28;20035;-70
2023/04/10 06:19:10;;;;;;;57.80;37.75;;;7.20;99.90;;;;;;5126382;28;20031;-70
2023/04/10 06:21:36;;;;;;;59.28;37.90;;;7.30;99.90;;;;;;5131838;28;20039;-70
2023/04/10 06:24:01;;;;;;;59.42;39.42;;;7.40;99.90;;;;;;5122772;27;20388;-69
2023/04/10 06:26:27;;;;;;;62.90;39.45;;;7.60;99.90;;;;;;5131302;28;20046;-70
2023/04/10 06:28:53;;;;;;;62.53;40.60;;;7.70;99.90;;;;;;5129392;28;20039;-69
2023/04/10 06:31:22;;;;;;;60.38;38.33;;;7.80;99.90;;;;;;5131799;27;20512;-69
2023/04/10 06:33:49;;;;;;;61.30;38.92;;;7.90;99.90;;;;;;5130002;28;20039;-69
2023/04/10 06:36:15;;;;;;;59.42;39.30;;;8.10;99.90;;;;;;5120822;28;20036;-69
2023/04/10 06:38:41;;;;;;;58.92;37.88;;;8.20;99.90;;;;;;5093769;28;20047;-69
2023/04/10 06:41:07;;;;;;;58.72;37.50;;;8.30;99.90;;;;;;5113427;28;20036;-70
2023/04/10 06:43:34;;;;;;;60.58;36.25;;;8.40;99.90;;;;;;5122938;28;20046;-69
2023/04/10 06:46:00;;;;;;;55.45;35.53;;;8.50;99.90;;;;;;5128493;27;20062;-70
2023/04/10 06:48:26;;;;;;;55.50;36.13;;;8.60;99.90;;;;;;5133750;27;20408;-69
2023/04/10 06:50:51;;;;;;;58.33;35.25;;;8.80;99.90;;;;;;5116445;27;20044;-70
2023/04/10 06:53:17;;;;;;;55.40;34.55;;;8.90;99.90;;;;;;5122333;27;20047;-70
2023/04/10 06:55:42;;;;;;;52.03;34.65;;;9.10;99.90;;;;;;5126219;27;20108;-69
2023/04/10 06:58:08;;;;;;;50.63;32.10;;;9.40;99.90;;;;;;5128507;27;20043;-69
2023/04/10 07:00:34;;;;;;;53.38;31.73;;;9.60;99.90;;;;;;5130666;27;20460;-69
2023/04/10 07:02:59;;;;;;;49.92;32.88;;;9.70;99.90;;;;;;5110434;27;20039;-69
2023/04/10 07:05:25;;;;;;;49.65;31.42;;;9.90;99.90;;;;;;5132299;27;20448;-69
2023/04/10 07:07:50;;;;;;;46.78;31.15;;;10.10;99.90;;;;;;5134870;27;20043;-69
2023/04/10 07:10:16;;;;;;;46.30;30.27;;;10.10;99.90;;;;;;5115038;27;20047;-69
2023/04/10 07:12:42;;;;;;;45.28;31.00;;;10.10;99.90;;;;;;5114209;28;20093;-70
2023/04/10 07:15:08;;;;;;;48.40;30.38;;;9.90;99.90;;;;;;5129380;27;20087;-69
2023/04/10 07:17:34;;;;;;;49.42;30.20;;;9.90;99.90;;;;;;5134278;27;20039;-69
2023/04/10 07:19:59;;;;;;;46.50;29.65;;;9.90;99.90;;;;;;5104480;27;20043;-69
2023/04/10 07:22:26;;;;;;;44.40;30.55;;;9.90;99.90;;;;;;5132169;27;20502;-70
2023/04/10 07:24:56;;;;;;;44.25;29.05;;;10.00;99.90;;;;;;5115718;27;20456;-70
2023/04/10 07:27:23;;;;;;;42.63;29.20;;;10.10;99.90;;;;;;5116913;27;20051;-69
2023/04/10 07:29:49;;;;;;;47.83;30.60;;;10.20;99.90;;;;;;5134431;27;20488;-70
2023/04/10 07:32:15;;;;;;;43.03;29.27;;;10.30;99.90;;;;;;5113901;27;20048;-69
2023/04/10 07:34:41;;;;;;;55.50;30.90;;;10.40;99.90;;;;;;5118950;27;20044;-70
2023/04/10 07:37:06;;;;;;;44.20;28.17;;;10.50;99.90;;;;;;5130634;27;20039;-70
2023/04/10 07:39:32;;;;;;;43.08;28.75;;;10.60;99.90;;;;;;5132016;27;20039;-70
2023/04/10 07:41:58;;;;;;;51.03;30.90;;;10.70;99.90;;;;;;5136879;27;20068;-70
2023/04/10 07:44:25;;;;;;;43.50;29.02;;;10.80;99.90;;;;;;5132074;27;20047;-70
2023/04/10 07:46:51;;;;;;;47.28;32.10;;;11.00;99.90;;;;;;5132931;27;20046;-70
2023/04/10 07:49:16;;;;;;;47.38;31.70;;;11.10;99.90;;;;;;5128310;27;20035;-70
2023/04/10 07:51:42;;;;;;;46.47;29.90;;;11.30;99.90;;;;;;5132881;27;20036;-70
2023/04/10 07:54:08;;;;;;;45.67;29.08;;;11.50;99.90;;;;;;5128661;27;20039;-70
2023/04/10 07:56:33;;;;;;;46.38;29.70;;;11.70;99.90;;;;;;5128955;27;20061;-70
2023/04/10 07:59:00;;;;;;;39.90;27.67;;;11.90;99.90;;;;;;5114593;27;20399;-70
2023/04/10 08:01:26;;;;;;;42.55;28.45;;;12.20;99.90;;;;;;5120709;27;20043;-71
2023/04/10 08:03:52;;;;;;;42.50;28.70;;;12.50;99.90;;;;;;5094032;28;20051;-70
2023/04/10 08:06:18;;;;;;;38.55;26.42;;;12.60;99.90;;;;;;5114639;28;20116;-70
2023/04/10 08:08:43;;;;;;;40.67;26.58;;;12.80;99.90;;;;;;5114406;27;20027;-70
2023/04/10 08:11:26;;;;;;;39.60;25.02;;;12.90;99.90;;;;;;5095572;28;20040;-70
2023/04/10 08:13:53;;;;;;;34.13;23.67;;;13.00;99.90;;;;;;5128589;27;20402;-70
2023/04/10 08:16:26;;;;;;;35.65;24.17;;;13.10;99.90;;;;;;5118227;27;20496;-71
2023/04/10 08:18:52;;;;;;;36.83;24.90;;;13.10;99.90;;;;;;5132828;27;20087;-69
2023/04/10 08:21:22;;;;;;;33.80;22.70;;;13.10;99.90;;;;;;5124369;27;20046;-69
2023/04/10 08:23:53;;;;;;;34.35;23.15;;;13.10;99.90;;;;;;5125181;27;20039;-69
2023/04/10 08:26:19;;;;;;;36.30;24.02;;;13.00;99.90;;;;;;5114500;27;20039;-69
2023/04/10 08:28:49;;;;;;;35.80;24.17;;;13.00;99.90;;;;;;5132384;27;20042;-71
2023/04/10 08:31:15;;;;;;;33.25;23.13;;;13.00;99.90;;;;;;5132525;27;20051;-71
2023/04/10 08:33:41;;;;;;;36.22;23.10;;;13.10;99.90;;;;;;5132873;27;20124;-71
2023/04/10 08:36:08;;;;;;;38.35;24.00;;;13.30;99.90;;;;;;5134729;27;20067;-70
2023/04/10 08:38:34;;;;;;;36.35;23.60;;;13.50;99.90;;;;;;5117186;27;20039;-70
2023/04/10 08:41:00;;;;;;;34.60;24.35;;;13.70;99.90;;;;;;5128908;27;20066;-69
2023/04/10 08:43:26;;;;;;;37.20;23.75;;;13.80;99.90;;;;;;5129312;27;20117;-70
2023/04/10 08:45:52;;;;;;;32.53;23.05;;;13.90;99.90;;;;;;5113798;27;20035;-69
2023/04/10 08:48:21;;;;;;;36.03;23.83;;;14.00;99.90;;;;;;5121843;27;20036;-70
2023/04/10 08:50:49;;;;;;;36.10;23.17;;;14.20;99.90;;;;;;5109534;27;20039;-71
2023/04/10 08:53:15;;;;;;;38.57;22.90;;;14.20;99.80;;;;;;5131190;27;20035;-69
2023/04/10 08:55:42;;;;;;;32.30;22.77;;;14.20;99.80;;;;;;5132443;27;20047;-71
2023/04/10 08:58:10;;;;;;;35.17;23.95;;;14.20;99.90;;;;;;5126911;27;20074;-70
2023/04/10 09:00:37;;;;;;;33.95;23.02;;;14.30;99.90;;;;;;5126022;27;20071;-69
2023/04/10 09:03:13;;;;;;;34.13;23.20;;;14.30;99.90;;;;;;5130270;27;20055;-70
2023/04/10 09:05:39;;;;;;;34.33;22.58;;;14.50;99.50;;;;;;5127665;27;20039;-70
2023/04/10 09:08:07;;;;;;;32.03;23.02;;;14.60;99.00;;;;;;5122271;27;20027;-71
2023/04/10 09:10:33;;;;;;;32.92;22.38;;;14.80;99.50;;;;;;5132862;27;20092;-70
2023/04/10 09:12:59;;;;;;;33.33;22.48;;;15.00;99.50;;;;;;5119989;27;20043;-70
2023/04/10 09:15:25;;;;;;;35.63;22.63;;;15.00;99.30;;;;;;5127405;27;20047;-70
2023/04/10 09:18:02;;;;;;;30.23;22.08;;;15.00;98.90;;;;;;5130475;27;20024;-70
2023/04/10 09:20:29;;;;;;;29.45;19.77;;;15.10;98.70;;;;;;5116897;27;20093;-69
2023/04/10 09:22:55;;;;;;;25.13;19.52;;;15.10;99.00;;;;;;5123645;27;20046;-70
2023/04/10 09:25:32;;;;;;;28.80;18.98;;;15.20;98.70;;;;;;5124674;27;20043;-70
2023/04/10 09:28:03;;;;;;;28.58;19.15;;;15.50;98.50;;;;;;5125270;27;20039;-69
2023/04/10 09:30:41;;;;;;;26.08;17.83;;;15.50;97.80;;;;;;5137009;27;20039;-69
2023/04/10 09:33:26;;;;;;;28.75;18.90;;;15.50;96.30;;;;;;5129832;27;20082;-69
2023/04/10 09:35:53;;;;;;;23.75;17.45;;;15.50;97.20;;;;;;5126662;28;20039;-69
2023/04/10 09:38:21;;;;;;;25.83;17.38;;;15.50;97.50;;;;;;5131789;28;20039;-69
2023/04/10 09:40:48;;;;;;;25.85;16.50;;;15.50;97.60;;;;;;5115215;28;20039;-69
2023/04/10 09:43:22;;;;;;;23.60;16.90;;;15.50;97.20;;;;;;5131396;28;20039;-70
2023/04/10 09:45:58;;;;;;;25.58;16.70;;;15.60;96.80;;;;;;5128050;27;20047;-73
2023/04/10 09:48:25;;;;;;;25.75;17.15;;;15.70;96.30;;;;;;5122820;27;20062;-70
2023/04/10 09:50:51;;;;;;;23.45;15.85;;;15.90;97.10;;;;;;5118432;28;20058;-70
2023/04/10 09:53:19;;;;;;;20.90;15.05;;;16.10;96.60;;;;;;5125192;28;20039;-70
2023/04/10 09:55:48;;;;;;;24.38;16.88;;;16.20;96.30;;;;;;5123073;28;20084;-69
2023/04/10 09:58:15;;;;;;;21.52;15.15;;;16.20;96.00;;;;;;5131957;28;20031;-70
2023/04/10 10:00:46;;;;;;;22.73;15.80;;;16.20;95.90;;;;;;5117299;28;20054;-70
2023/04/10 10:03:16;;;;;;;21.88;15.90;;;16.40;95.40;;;;;;5127482;28;20042;-70
2023/04/10 10:05:47;;;;;;;21.25;14.73;;;16.40;95.30;;;;;;5129406;27;20122;-69
2023/04/10 10:08:14;;;;;;;21.75;15.00;;;16.50;95.60;;;;;;5128064;28;20126;-70
2023/04/10 10:10:52;;;;;;;22.05;15.32;;;16.70;95.30;;;;;;5116380;28;20483;-70
2023/04/10 10:13:47;;;;;;;21.77;14.55;;;16.70;94.30;;;;;;5126368;27;20039;-70
2023/04/10 10:16:33;;;;;;;18.92;14.43;;;16.80;93.90;;;;;;5114519;27;20052;-70
2023/04/10 10:19:05;;;;;;;20.65;13.45;;;17.00;94.50;;;;;;5103360;28;20043;-71
2023/04/10 10:21:33;;;;;;;17.63;13.32;;;17.20;94.20;;;;;;5090002;27;20047;-70
2023/04/10 10:24:00;;;;;;;18.63;13.30;;;17.40;94.40;;;;;;5120196;27;20427;-70
2023/04/10 10:26:28;;;;;;;23.38;15.50;;;17.50;93.40;;;;;;5099858;27;20035;-70
2023/04/10 10:28:56;;;;;;;17.33;13.18;;;17.40;93.00;;;;;;5130967;27;20042;-70
2023/04/10 10:31:24;;;;;;;18.20;13.30;;;17.40;93.10;;;;;;5134632;27;20068;-71
2023/04/10 10:33:53;;;;;;;17.65;13.55;;;17.30;93.00;;;;;;5112543;27;20087;-70
2023/04/10 10:36:19;;;;;;;17.60;13.15;;;17.30;92.20;;;;;;5130375;27;20139;-70
2023/04/10 10:39:08;;;;;;;20.55;13.68;;;17.10;92.60;;;;;;5113748;27;20081;-70
2023/04/10 10:41:48;;;;;;;22.50;13.27;;;17.10;91.70;;;;;;5125121;27;20048;-70
2023/04/10 10:44:31;;;;;;;19.08;11.75;;;17.00;92.10;;;;;;5125818;27;20127;-70
2023/04/10 10:47:06;;;;;;;18.52;11.20;;;16.90;91.90;;;;;;5111624;27;20055;-70
2023/04/10 10:49:55;;;;;;;13.43;10.55;;;16.70;91.30;;;;;;5131276;27;20050;-70
2023/04/10 10:52:41;;;;;;;13.13;10.23;;;16.50;91.90;;;;;;5119996;27;20036;-71
2023/04/10 10:55:34;;;;;;;18.33;10.57;;;16.40;91.70;;;;;;5116184;27;20039;-70
2023/04/10 10:58:03;;;;;;;13.85;10.02;;;16.30;92.30;;;;;;5131267;27;20043;-70
2023/04/10 11:00:51;;;;;;;11.50;9.20;;;16.30;92.20;;;;;;5129827;27;20054;-70
2023/04/10 11:03:16;;;;;;;13.07;9.60;;;16.40;92.50;;;;;;5114491;27;20039;-70
2023/04/10 11:06:18;;;;;;;12.23;8.98;;;16.40;92.70;;;;;;5130651;27;20077;-71
2023/04/10 11:08:45;;;;;;;12.15;8.52;;;16.50;92.40;;;;;;5062913;27;20243;-70
2023/04/10 11:11:20;;;;;;;12.03;9.10;;;16.50;91.90;;;;;;5120022;27;20055;-71
2023/04/10 11:13:50;;;;;;;11.40;8.88;;;16.60;92.30;;;;;;5096268;28;20396;-70
2023/04/10 11:16:16;;;;;;;13.60;8.93;;;16.60;92.00;;;;;;5121983;27;20541;-71
2023/04/10 11:18:47;;;;;;;12.18;9.00;;;16.60;92.10;;;;;;5132565;27;20028;-70
2023/04/10 11:21:14;;;;;;;13.32;9.57;;;16.60;92.00;;;;;;5132533;27;20100;-71
2023/04/10 11:23:49;;;;;;;14.07;8.63;;;16.70;92.20;;;;;;5123901;27;20039;-72
2023/04/10 11:26:42;;;;;;;14.02;8.07;;;16.70;92.50;;;;;;5130940;27;20385;-70
2023/04/10 11:29:16;;;;;;;10.73;7.65;;;16.70;91.60;;;;;;5126659;27;20051;-71
2023/04/10 11:31:53;;;;;;;11.68;7.82;;;16.80;92.20;;;;;;5111282;27;20072;-70
2023/04/10 11:34:19;;;;;;;12.52;8.25;;;16.80;92.40;;;;;;5125091;27;20054;-71
2023/04/10 11:36:46;;;;;;;9.82;7.70;;;16.90;92.10;;;;;;5122134;27;20032;-71
2023/04/10 11:39:16;;;;;;;11.15;7.43;;;16.90;91.80;;;;;;5128053;27;20047;-71
2023/04/10 11:41:46;;;;;;;9.50;6.63;;;16.80;91.70;;;;;;5118913;27;20056;-71
2023/04/10 11:44:13;;;;;;;8.65;6.65;;;16.90;91.80;;;;;;5112480;27;20519;-71
2023/04/10 11:46:41;;;;;;;14.45;6.68;;;16.80;92.20;;;;;;5112210;27;20054;-68
2023/04/10 11:49:09;;;;;;;8.50;6.75;;;16.80;92.10;;;;;;5132679;27;20057;-71
2023/04/10 11:51:38;;;;;;;8.70;6.32;;;16.80;92.00;;;;;;5132565;27;20499;-71
2023/04/10 11:54:12;;;;;;;9.05;6.45;;;16.80;91.70;;;;;;5114298;27;20035;-69
2023/04/10 11:56:40;;;;;;;7.97;5.22;;;16.80;91.50;;;;;;5115369;27;20059;-70
2023/04/10 11:59:09;;;;;;;8.40;5.97;;;16.80;91.80;;;;;;5119166;27;20142;-70
2023/04/10 12:01:36;;;;;;;7.70;5.75;;;16.70;91.50;;;;;;5109450;27;20035;-70
2023/04/10 12:04:02;;;;;;;6.97;5.40;;;16.80;91.80;;;;;;5115002;27;20036;-69
2023/04/10 12:06:28;;;;;;;7.30;5.32;;;17.00;91.90;;;;;;5101522;27;20058;-70
2023/04/10 12:08:54;;;;;;;9.82;5.68;;;17.10;91.20;;;;;;5114818;27;20032;-70
2023/04/10 12:11:24;;;;;;;9.23;5.55;;;17.30;91.90;;;;;;5119312;27;20079;-70
2023/04/10 12:13:54;;;;;;;9.30;5.43;;;17.50;91.60;;;;;;5103110;27;20043;-70
2023/04/10 12:16:20;;;;;;;7.13;5.05;;;17.50;90.70;;;;;;5114916;27;20047;-69
2023/04/10 12:18:47;;;;;;;7.53;5.25;;;17.60;91.10;;;;;;5131827;27;20042;-69
2023/04/10 12:21:13;;;;;;;6.22;5.05;;;17.80;91.20;;;;;;5131728;27;20040;-70
2023/04/10 12:23:38;;;;;;;5.63;4.47;;;18.10;91.40;;;;;;5137470;27;20050;-69
2023/04/10 12:26:13;;;;;;;7.55;4.90;;;18.60;90.30;;;;;;5126376;27;20036;-70
2023/04/10 12:28:41;;;;;;;7.70;5.03;;;19.00;90.20;;;;;;5133837;27;20040;-69
2023/04/10 12:31:08;;;;;;;6.43;4.57;;;19.60;90.50;;;;;;5122053;27;20415;-70
2023/04/10 12:33:33;;;;;;;6.15;4.45;;;20.50;88.10;;;;;;5122671;27;20043;-72
2023/04/10 12:35:59;;;;;;;6.65;4.57;;;20.50;85.30;;;;;;5116611;27;20471;-70
2023/04/10 12:38:39;;;;;;;6.07;4.05;;;20.50;84.20;;;;;;5114230;27;20071;-69
2023/04/10 12:41:05;;;;;;;7.03;5.03;;;20.10;82.60;;;;;;5122402;27;20040;-70